Time;durP1;ratioP1;P1;durP2;ratioP2;P2;SDS_P1;SDS_P2;PMS_P1;PMS_P2;Temp;Humidity;BMP_temperature;BMP_pressure;BME280_temperature;BME280_humidity;BME280_pressure;Samples;Min_cycle;Max_cycle;Signal;HPM_P1;HPM_P2
2021/05/07 00:00:15;;;;;;;7.38;4.80;;;;;;;8.40;38.63;100392.34;3522685;40;20343;-74
2021/05/07 00:02:44;;;;;;;7.72;5.90;;;;;;;8.41;38.96;100395.94;3524541;40;20087;-74
2021/05/07 00:05:12;;;;;;;7.00;4.72;;;;;;;8.39;38.75;100393.38;3526542;40;20043;-74
2021/05/07 00:07:39;;;;;;;7.60;4.90;;;;;;;8.39;38.95;100396.09;3524707;40;20055;-74
2021/05/07 00:10:16;;;;;;;6.70;4.78;;;;;;;8.40;38.87;100397.81;3524280;40;20070;-74
2021/05/07 00:12:45;;;;;;;6.25;4.18;;;;;;;8.38;38.81;100396.22;3526608;40;20055;-74
2021/05/07 00:15:13;;;;;;;6.50;4.68;;;;;;;8.39;39.01;100400.69;3527341;40;20061;-74
2021/05/07 00:17:41;;;;;;;6.78;4.30;;;;;;;8.39;38.82;100403.41;3522310;40;20062;-75
2021/05/07 00:20:11;;;;;;;7.88;5.25;;;;;;;8.39;39.10;100404.28;3523964;40;20058;-74
2021/05/07 00:22:40;;;;;;;6.38;4.60;;;;;;;8.39;39.15;100407.00;3525120;40;20059;-74
2021/05/07 00:25:23;;;;;;;6.63;4.57;;;;;;;8.37;39.00;100406.25;3525453;40;20338;-74
2021/05/07 00:28:00;;;;;;;6.00;4.47;;;;;;;8.40;39.70;100410.56;3527234;40;20058;-74
2021/05/07 00:30:28;;;;;;;6.40;4.35;;;;;;;8.36;38.81;100412.69;3523094;40;20060;-74
2021/05/07 00:32:55;;;;;;;6.47;4.45;;;;;;;8.36;38.77;100415.44;3526345;40;20057;-74
2021/05/07 00:35:24;;;;;;;5.63;4.13;;;;;;;8.36;39.02;100412.69;3525686;40;20168;-74
2021/05/07 00:37:51;;;;;;;6.20;4.47;;;;;;;8.34;38.83;100411.97;3525440;40;20051;-74
2021/05/07 00:40:20;;;;;;;8.18;5.35;;;;;;;8.35;38.61;100413.69;3526903;40;20087;-74
2021/05/07 00:42:47;;;;;;;7.22;4.70;;;;;;;8.33;38.64;100414.81;3527738;40;20055;-74
2021/05/07 00:45:16;;;;;;;7.50;5.53;;;;;;;8.33;38.65;100417.53;3532808;40;20059;-74
2021/05/07 00:47:49;;;;;;;5.93;4.60;;;;;;;8.31;38.87;100414.09;3526630;40;20067;-74
2021/05/07 00:50:17;;;;;;;7.20;5.40;;;;;;;8.23;38.49;100420.16;3527373;40;20153;-74
2021/05/07 00:52:49;;;;;;;7.80;5.55;;;;;;;8.26;39.31;100425.38;3529412;40;20266;-74
2021/05/07 00:55:19;;;;;;;10.18;5.88;;;;;;;8.19;39.10;100416.84;3532692;40;20066;-74
2021/05/07 00:57:48;;;;;;;6.75;5.75;;;;;;;8.15;38.89;100423.53;3531296;40;20340;-74
2021/05/07 01:00:17;;;;;;;6.88;5.03;;;;;;;8.16;39.01;100433.44;3528057;40;20063;-74
2021/05/07 01:02:51;;;;;;;6.97;5.60;;;;;;;8.12;39.14;100431.97;3524517;40;20081;-74
2021/05/07 01:05:19;;;;;;;7.72;5.70;;;;;;;8.10;39.13;100428.50;3524996;40;20063;-74
2021/05/07 01:07:48;;;;;;;7.50;5.88;;;;;;;8.10;39.39;100433.09;3528191;40;20051;-74
2021/05/07 01:10:16;;;;;;;7.20;5.30;;;;;;;8.07;39.31;100426.00;3528718;40;20091;-74
2021/05/07 01:12:44;;;;;;;6.50;4.80;;;;;;;8.05;39.29;100422.59;3529304;40;20079;-74
2021/05/07 01:15:14;;;;;;;7.10;5.55;;;;;;;8.05;39.57;100422.59;3522090;40;20059;-74
2021/05/07 01:17:46;;;;;;;7.90;5.78;;;;;;;8.06;39.35;100426.16;3527686;40;20047;-74
2021/05/07 01:20:17;;;;;;;7.63;5.75;;;;;;;8.04;39.75;100430.88;3529808;40;20110;-74
2021/05/07 01:22:46;;;;;;;6.78;5.10;;;;;;;8.00;39.09;100424.81;3527161;40;20166;-74
2021/05/07 01:25:16;;;;;;;7.53;5.55;;;;;;;7.99;39.67;100431.22;3527749;40;21666;-74
2021/05/07 01:27:45;;;;;;;7.63;5.05;;;;;;;7.98;39.25;100429.53;3524760;40;20061;-74
2021/05/07 01:30:15;;;;;;;6.70;5.15;;;;;;;7.98;39.76;100434.13;3526446;40;20067;-74
2021/05/07 01:32:43;;;;;;;6.63;5.00;;;;;;;7.94;39.48;100433.47;3536968;40;20059;-73
2021/05/07 01:35:14;;;;;;;8.65;5.88;;;;;;;7.94;39.29;100433.47;3525928;40;20043;-74
2021/05/07 01:37:44;;;;;;;7.22;5.38;;;;;;;7.92;39.82;100432.72;3528797;40;20055;-74
2021/05/07 01:40:14;;;;;;;7.80;5.20;;;;;;;7.91;39.70;100431.00;3530286;40;20316;-75
2021/05/07 01:42:42;;;;;;;7.90;5.47;;;;;;;7.87;39.71;100434.97;3529167;40;20071;-73
2021/05/07 01:45:11;;;;;;;7.10;5.00;;;;;;;7.87;39.50;100432.25;3532528;40;20394;-74
2021/05/07 01:47:39;;;;;;;8.20;5.70;;;;;;;7.86;39.59;100439.56;3529764;40;20053;-75
2021/05/07 01:50:08;;;;;;;7.20;5.75;;;;;;;7.85;39.85;100437.81;3535880;40;20078;-74
2021/05/07 01:52:37;;;;;;;8.05;5.25;;;;;;;7.84;39.89;100435.22;3530201;40;20044;-73
2021/05/07 01:55:08;;;;;;;7.53;5.30;;;;;;;7.85;40.44;100443.28;3535302;40;20049;-73
2021/05/07 01:57:37;;;;;;;7.30;5.90;;;;;;;7.83;40.15;100444.38;3528628;40;20058;-73
2021/05/07 02:00:07;;;;;;;8.38;5.93;;;;;;;7.82;40.25;100448.94;3534793;40;20070;-74
2021/05/07 02:02:42;;;;;;;9.82;6.60;;;;;;;7.79;39.96;100443.78;3526848;40;20133;-74
2021/05/07 02:05:19;;;;;;;8.00;6.07;;;;;;;7.77;40.05;100453.06;3516494;40;20051;-74
2021/05/07 02:07:48;;;;;;;8.48;6.38;;;;;;;7.77;39.96;100458.50;3525796;40;20047;-73
2021/05/07 02:10:19;;;;;;;8.50;6.45;;;;;;;7.78;40.14;100454.78;3526593;40;20051;-74
2021/05/07 02:13:07;;;;;;;8.80;6.45;;;;;;;7.73;40.03;100462.47;3528492;40;20047;-74
2021/05/07 02:15:36;;;;;;;9.93;6.90;;;;;;;7.73;40.12;100463.34;3525857;40;20055;-74
2021/05/07 02:18:07;;;;;;;8.43;6.30;;;;;;;7.73;40.16;100462.47;3528332;40;20063;-74
2021/05/07 02:20:35;;;;;;;9.93;6.20;;;;;;;7.70;40.11;100463.56;3527746;40;20051;-74
2021/05/07 02:23:03;;;;;;;9.35;6.47;;;;;;;7.68;40.10;100464.69;3525521;40;20047;-74
2021/05/07 02:25:31;;;;;;;10.65;7.35;;;;;;;7.69;40.08;100467.28;3529599;40;20039;-74
2021/05/07 02:27:59;;;;;;;8.70;6.60;;;;;;;7.66;39.99;100469.38;3528965;40;20062;-74
2021/05/07 02:30:31;;;;;;;10.35;7.10;;;;;;;7.65;40.28;100473.97;3529533;40;20058;-74
2021/05/07 02:33:04;;;;;;;10.88;7.22;;;;;;;7.62;39.97;100474.22;3526733;40;20062;-74
2021/05/07 02:35:33;;;;;;;9.48;6.68;;;;;;;7.61;40.09;100477.94;3526392;40;20067;-74
2021/05/07 02:38:01;;;;;;;9.82;6.78;;;;;;;7.59;40.37;100477.16;3523000;40;20134;-73
2021/05/07 02:40:30;;;;;;;9.93;7.15;;;;;;;7.58;40.28;100480.00;3525819;40;20389;-74
2021/05/07 02:42:58;;;;;;;10.55;7.03;;;;;;;7.56;40.33;100479.28;3528759;40;20402;-74
2021/05/07 02:45:30;;;;;;;8.98;6.65;;;;;;;7.51;40.34;100479.66;3525523;40;20329;-73
2021/05/07 02:47:58;;;;;;;10.93;7.15;;;;;;;7.48;40.31;100483.50;3525874;40;20137;-73
2021/05/07 02:50:26;;;;;;;8.55;6.20;;;;;;;7.45;40.18;100483.72;3526370;40;20714;-74
2021/05/07 02:52:53;;;;;;;10.25;6.57;;;;;;;7.43;40.28;100493.00;3528215;40;20047;-74
2021/05/07 02:55:21;;;;;;;9.55;7.22;;;;;;;7.42;40.25;100493.97;3524536;40;20048;-74
2021/05/07 03:01:25;;;;;;;11.70;7.00;;;;;;;7.32;40.59;100496.59;3527279;40;20102;-74
2021/05/07 03:03:55;;;;;;;10.20;6.82;;;;;;;7.29;40.58;100495.94;3524787;40;20032;-74
2021/05/07 03:06:23;;;;;;;8.60;6.40;;;;;;;7.28;40.59;100505.09;3529252;40;20084;-74
2021/05/07 03:08:50;;;;;;;9.68;6.85;;;;;;;7.26;40.40;100510.66;3525629;40;20059;-73
2021/05/07 03:11:17;;;;;;;10.48;7.15;;;;;;;7.25;40.62;100510.75;3532999;40;20609;-73
2021/05/07 03:13:45;;;;;;;11.38;7.30;;;;;;;7.24;40.54;100517.22;3533765;40;20183;-73
2021/05/07 03:16:12;;;;;;;10.05;7.18;;;;;;;7.22;40.79;100517.31;3525703;40;20051;-74
2021/05/07 03:18:41;;;;;;;10.48;7.05;;;;;;;7.23;40.82;100513.63;3524844;40;20051;-74
2021/05/07 03:21:08;;;;;;;10.73;7.43;;;;;;;7.21;40.72;100517.44;3528298;40;20397;-74
2021/05/07 03:23:36;;;;;;;9.07;6.57;;;;;;;7.21;40.81;100525.59;3525221;40;20055;-74
2021/05/07 03:26:03;;;;;;;11.85;8.32;;;;;;;7.21;40.94;100525.59;3527172;40;20050;-74
2021/05/07 03:28:31;;;;;;;12.35;8.75;;;;;;;7.20;41.13;100522.00;3525095;40;20051;-74
2021/05/07 03:30:59;;;;;;;13.32;9.25;;;;;;;7.21;40.85;100529.19;3525839;40;20083;-74
2021/05/07 03:33:27;;;;;;;11.55;7.82;;;;;;;7.20;41.34;100530.16;3525614;40;20047;-74
2021/05/07 03:35:55;;;;;;;10.95;7.22;;;;;;;7.22;41.14;100538.22;3524101;40;20055;-74
2021/05/07 03:38:22;;;;;;;12.38;8.40;;;;;;;7.21;41.28;100533.75;3526655;40;20063;-74
2021/05/07 03:40:53;;;;;;;12.48;7.90;;;;;;;7.22;41.19;100535.50;3527536;40;20055;-74
2021/05/07 03:43:21;;;;;;;13.18;8.40;;;;;;;7.22;41.13;100536.38;3525513;40;20110;-74
2021/05/07 03:45:48;;;;;;;11.38;8.00;;;;;;;7.22;41.11;100536.38;3526039;40;20133;-73
2021/05/07 03:48:23;;;;;;;12.40;8.88;;;;;;;7.24;41.33;100541.69;3525645;40;20047;-73
2021/05/07 03:50:52;;;;;;;10.93;7.85;;;;;;;7.22;41.11;100547.25;3529433;40;20055;-73
2021/05/07 03:53:21;;;;;;;10.65;7.50;;;;;;;7.22;41.13;100540.94;3528684;40;20047;-74
2021/05/07 03:55:50;;;;;;;12.63;7.85;;;;;;;7.21;41.10;100550.94;3526360;40;20051;-74
2021/05/07 03:58:18;;;;;;;10.95;7.32;;;;;;;7.20;41.17;100551.94;3525144;40;20055;-74
2021/05/07 04:00:45;;;;;;;10.45;7.57;;;;;;;7.20;41.03;100543.78;3527071;40;20087;-74
2021/05/07 04:03:13;;;;;;;12.52;8.32;;;;;;;7.19;40.97;100550.19;3527797;40;20055;-74
2021/05/07 04:05:41;;;;;;;12.73;8.68;;;;;;;7.17;41.04;100549.44;3527464;40;20079;-74
2021/05/07 04:08:12;;;;;;;12.85;8.07;;;;;;;7.16;41.24;100558.59;3526799;40;20134;-74
2021/05/07 04:10:42;;;;;;;11.45;7.80;;;;;;;7.17;41.07;100551.28;3528237;40;20050;-73
2021/05/07 04:13:38;;;;;;;13.40;8.50;;;;;;;7.13;41.34;100568.84;3527421;40;20401;-73
2021/05/07 04:16:14;;;;;;;11.25;7.68;;;;;;;7.10;41.00;100570.81;3526477;40;20373;-74
2021/05/07 04:18:55;;;;;;;13.15;8.40;;;;;;;7.13;41.11;100574.28;3526290;40;20071;-74
2021/05/07 04:21:24;;;;;;;12.65;8.80;;;;;;;7.11;41.20;100574.41;3523419;40;20055;-74
2021/05/07 04:23:51;;;;;;;15.30;9.10;;;;;;;7.11;41.28;100579.84;3527937;40;20055;-74
2021/05/07 04:26:20;;;;;;;13.95;9.40;;;;;;;7.11;41.27;100594.31;3521669;40;20047;-74
2021/05/07 04:28:47;;;;;;;12.82;8.40;;;;;;;7.10;41.26;100588.97;3528700;40;20110;-74
2021/05/07 04:31:15;;;;;;;13.35;9.13;;;;;;;7.11;41.43;100593.44;3527113;40;20060;-74
2021/05/07 04:33:43;;;;;;;13.55;9.98;;;;;;;7.10;41.53;100589.84;3527716;40;20060;-74
2021/05/07 04:36:10;;;;;;;14.15;9.73;;;;;;;7.11;41.54;100588.00;3524105;40;20051;-73
2021/05/07 04:38:37;;;;;;;14.07;9.40;;;;;;;7.10;41.55;100589.84;3527467;40;20053;-74
2021/05/07 04:41:04;;;;;;;14.43;10.50;;;;;;;7.11;41.38;100588.88;3527820;40;20051;-74
2021/05/07 04:43:33;;;;;;;14.68;9.15;;;;;;;7.14;41.61;100595.06;3532387;40;20069;-74
2021/05/07 04:46:00;;;;;;;17.98;10.55;;;;;;;7.16;41.78;100599.38;3530138;40;20413;-74
2021/05/07 04:48:29;;;;;;;15.43;10.55;;;;;;;7.20;41.88;100594.59;3529477;40;20055;-73
2021/05/07 04:50:56;;;;;;;15.82;10.63;;;;;;;7.24;41.79;100605.09;3529902;40;20055;-74
2021/05/07 04:53:24;;;;;;;15.13;10.35;;;;;;;7.27;42.00;100594.00;3523291;40;20083;-73
2021/05/07 04:55:51;;;;;;;14.32;10.50;;;;;;;7.30;42.22;100596.50;3530401;40;20062;-74
2021/05/07 04:58:18;;;;;;;15.73;9.52;;;;;;;7.35;41.93;100591.56;3528208;40;20057;-74
2021/05/07 05:00:47;;;;;;;17.52;10.98;;;;;;;7.40;42.02;100592.09;3533210;40;20059;-74
2021/05/07 05:03:18;;;;;;;17.57;11.60;;;;;;;7.41;41.96;100596.53;3533442;40;20051;-73
2021/05/07 05:05:45;;;;;;;14.50;9.95;;;;;;;7.47;41.88;100600.63;3529890;40;20101;-73
2021/05/07 05:08:12;;;;;;;15.13;10.20;;;;;;;7.51;41.94;100604.84;3533157;40;20051;-73
2021/05/07 05:10:40;;;;;;;15.85;10.02;;;;;;;7.55;42.12;100614.53;3533050;40;20043;-74
2021/05/07 05:13:07;;;;;;;14.68;10.48;;;;;;;7.60;42.12;100625.91;3534301;40;20063;-73
2021/05/07 05:15:34;;;;;;;16.40;10.30;;;;;;;7.67;42.19;100639.91;3529264;40;20066;-73
2021/05/07 05:18:02;;;;;;;16.65;11.23;;;;;;;7.72;41.95;100633.13;3529314;40;20059;-73
2021/05/07 05:20:30;;;;;;;17.33;11.68;;;;;;;7.75;41.81;100629.28;3527002;40;20043;-74
2021/05/07 05:22:57;;;;;;;15.20;9.73;;;;;;;7.77;41.78;100633.63;3530185;40;20391;-74
2021/05/07 05:25:28;;;;;;;14.02;9.45;;;;;;;7.82;42.06;100645.03;3529347;40;20043;-74
2021/05/07 05:27:56;;;;;;;13.73;9.38;;;;;;;7.82;41.65;100649.59;3534485;40;20059;-73
2021/05/07 05:30:23;;;;;;;14.60;9.63;;;;;;;7.83;41.65;100645.88;3527699;40;20047;-74
2021/05/07 05:32:51;;;;;;;14.27;9.80;;;;;;;7.82;41.47;100645.03;3533692;40;20087;-73
2021/05/07 05:35:19;;;;;;;15.50;10.45;;;;;;;7.83;41.68;100649.47;3533212;40;20050;-74
2021/05/07 05:37:46;;;;;;;13.93;9.98;;;;;;;7.82;41.75;100652.31;3532252;40;20054;-74
2021/05/07 05:40:16;;;;;;;12.85;9.20;;;;;;;7.83;41.93;100652.19;3526240;40;20051;-73
2021/05/07 05:42:43;;;;;;;16.38;10.60;;;;;;;7.82;41.66;100652.31;3532604;40;20082;-73
2021/05/07 05:45:12;;;;;;;14.52;10.07;;;;;;;7.83;41.90;100649.47;3526907;40;20055;-73
2021/05/07 05:47:39;;;;;;;15.13;9.95;;;;;;;7.82;41.47;100655.03;3529160;40;20063;-73
2021/05/07 05:50:08;;;;;;;14.80;9.85;;;;;;;7.84;41.85;100662.13;3527773;40;20400;-72
2021/05/07 05:52:41;;;;;;;16.25;10.45;;;;;;;7.85;41.92;100671.16;3527354;40;20051;-74
2021/05/07 05:55:09;;;;;;;17.20;10.98;;;;;;;7.86;42.04;100681.06;3534424;40;20130;-74
2021/05/07 05:57:37;;;;;;;17.15;10.68;;;;;;;7.85;41.83;100682.03;3528322;40;20059;-75
2021/05/07 06:00:05;;;;;;;14.80;9.65;;;;;;;7.86;41.64;100694.69;3535810;40;20058;-75
2021/05/07 06:02:39;;;;;;;11.73;8.48;;;;;;;7.86;41.67;100686.50;3530308;40;20066;-75
2021/05/07 06:05:08;;;;;;;10.35;6.95;;;;;;;7.84;41.17;100689.34;3527158;40;20051;-75
2021/05/07 06:07:37;;;;;;;9.23;6.70;;;;;;;7.79;41.64;100672.50;3531653;40;20400;-74
2021/05/07 06:10:07;;;;;;;11.10;6.47;;;;;;;7.77;41.54;100654.53;3533611;40;20063;-74
2021/05/07 06:12:35;;;;;;;8.68;5.85;;;;;;;7.71;41.51;100653.19;3530774;40;20063;-76
2021/05/07 06:15:03;;;;;;;10.50;6.10;;;;;;;7.68;41.45;100669.75;3526326;40;20491;-74
2021/05/07 06:17:31;;;;;;;10.25;6.32;;;;;;;7.66;41.50;100662.66;3527111;40;20062;-73
2021/05/07 06:20:01;;;;;;;10.18;6.05;;;;;;;7.64;41.65;100664.66;3536962;40;20063;-73
2021/05/07 06:22:29;;;;;;;8.05;5.43;;;;;;;7.62;41.91;100669.34;3530656;40;20058;-73
2021/05/07 06:24:57;;;;;;;7.75;5.35;;;;;;;7.62;41.65;100667.50;3530346;40;20057;-73
2021/05/07 06:27:25;;;;;;;8.73;5.78;;;;;;;7.61;41.64;100676.66;3528390;40;20158;-74
2021/05/07 06:29:53;;;;;;;6.50;4.72;;;;;;;7.59;41.73;100666.84;3527627;40;20083;-74
2021/05/07 06:32:20;;;;;;;7.40;5.18;;;;;;;7.59;41.80;100672.28;3525991;40;20052;-73
2021/05/07 06:34:48;;;;;;;6.50;4.53;;;;;;;7.60;41.86;100682.19;3533242;40;20431;-73
2021/05/07 06:37:17;;;;;;;7.82;4.95;;;;;;;7.59;41.86;100673.16;3527884;40;20308;-73
2021/05/07 06:39:45;;;;;;;8.75;5.43;;;;;;;7.60;41.95;100682.19;3532553;40;20043;-73
2021/05/07 06:42:14;;;;;;;7.63;4.97;;;;;;;7.59;41.85;100688.63;3530225;40;20050;-73
2021/05/07 06:44:43;;;;;;;9.15;5.68;;;;;;;7.61;41.93;100694.84;3529753;40;20085;-72
2021/05/07 06:47:11;;;;;;;8.70;5.55;;;;;;;7.59;41.91;100691.34;3526551;40;20047;-73
2021/05/07 06:49:57;;;;;;;7.43;4.90;;;;;;;7.60;41.93;100701.25;3535168;40;20066;-72
2021/05/07 06:52:44;;;;;;;6.30;4.40;;;;;;;7.58;41.92;100701.38;3521165;40;20102;-73
2021/05/07 06:55:15;;;;;;;6.68;4.28;;;;;;;7.58;41.51;100704.09;3525119;40;20324;-74
2021/05/07 06:57:43;;;;;;;7.68;4.63;;;;;;;7.59;41.70;100718.56;3528241;40;20095;-74
2021/05/07 07:00:12;;;;;;;6.00;4.13;;;;;;;7.59;41.63;100715.84;3529993;40;20065;-73
2021/05/07 07:02:40;;;;;;;6.68;4.55;;;;;;;7.58;41.77;100731.31;3529142;40;20083;-73
2021/05/07 07:05:09;;;;;;;7.88;4.93;;;;;;;7.57;41.67;100726.00;3531867;40;20070;-72
2021/05/07 07:07:37;;;;;;;6.80;4.70;;;;;;;7.55;41.73;100727.97;3529578;40;20087;-73
2021/05/07 07:10:21;;;;;;;6.93;4.75;;;;;;;7.55;41.59;100730.69;3529852;40;20047;-73
2021/05/07 07:12:49;;;;;;;9.52;5.20;;;;;;;7.53;41.82;100743.53;3523720;40;20443;-73
2021/05/07 07:15:17;;;;;;;6.97;4.78;;;;;;;7.53;41.62;100755.31;3527522;40;20331;-75
2021/05/07 07:17:44;;;;;;;6.95;4.15;;;;;;;7.49;41.45;100765.53;3528137;40;20315;-72
2021/05/07 07:23:23;;;;;;;5.93;3.80;;;;;;;7.42;41.00;100783.31;3529715;40;20046;-74
2021/05/07 07:25:50;;;;;;;5.63;3.30;;;;;;;7.40;41.05;100784.44;3533778;40;20035;-74
2021/05/07 07:28:18;;;;;;;4.93;3.35;;;;;;;7.36;41.22;100777.47;3527364;40;20185;-77
2021/05/07 07:30:47;;;;;;;5.65;3.47;;;;;;;7.32;41.12;100786.84;3528132;40;20070;-72
2021/05/07 07:33:14;;;;;;;6.82;3.55;;;;;;;7.26;40.94;100790.88;3527836;40;20059;-73
2021/05/07 07:35:49;;;;;;;5.82;3.22;;;;;;;7.21;40.94;100787.63;3528866;40;20059;-73
2021/05/07 07:38:17;;;;;;;7.32;3.58;;;;;;;7.19;41.00;100807.75;3516744;40;20051;-74
2021/05/07 07:40:44;;;;;;;6.22;4.30;;;;;;;7.15;40.87;100804.41;3528808;40;20385;-75
2021/05/07 07:43:11;;;;;;;6.00;3.85;;;;;;;7.11;41.03;100802.88;3530692;40;20133;-74
2021/05/07 07:45:38;;;;;;;6.80;3.95;;;;;;;7.06;41.08;100808.69;3530271;40;20065;-75
2021/05/07 07:48:08;;;;;;;5.35;3.63;;;;;;;7.05;41.22;100823.25;3531887;40;20086;-74
2021/05/07 07:50:36;;;;;;;6.57;4.18;;;;;;;7.00;41.14;100824.50;3527890;40;20333;-74
2021/05/07 07:53:03;;;;;;;6.18;3.90;;;;;;;6.98;41.18;100837.38;3529618;40;20044;-74
2021/05/07 07:55:32;;;;;;;5.03;3.85;;;;;;;6.92;41.38;100838.66;3531703;40;20051;-73
2021/05/07 07:57:59;;;;;;;5.72;3.70;;;;;;;6.89;41.58;100852.50;3533862;40;20058;-73
2021/05/07 08:00:26;;;;;;;5.03;3.63;;;;;;;6.87;41.29;100856.28;3533229;40;20302;-73
2021/05/07 08:02:54;;;;;;;5.72;3.95;;;;;;;6.86;41.39;100857.25;3535588;40;20428;-72
2021/05/07 08:05:22;;;;;;;6.28;4.15;;;;;;;6.85;41.85;100864.56;3531503;40;20413;-72
2021/05/07 08:07:50;;;;;;;6.63;4.40;;;;;;;6.82;41.92;100875.66;3538536;40;20062;-72
2021/05/07 08:10:18;;;;;;;7.22;4.18;;;;;;;6.81;41.75;100884.78;3537812;40;20059;-73
2021/05/07 08:12:46;;;;;;;5.35;3.80;;;;;;;6.82;42.05;100880.22;3535386;40;20055;-73
2021/05/07 08:15:14;;;;;;;6.68;3.95;;;;;;;6.81;42.10;100879.34;3530857;40;20133;-74
2021/05/07 08:17:41;;;;;;;5.63;3.80;;;;;;;6.81;42.16;100884.78;3531519;40;20290;-73
2021/05/07 08:20:10;;;;;;;5.82;4.07;;;;;;;6.85;42.15;100880.00;3529485;40;20066;-73
2021/05/07 08:22:39;;;;;;;4.93;3.50;;;;;;;6.85;42.68;100880.88;3528034;40;20055;-72
2021/05/07 08:25:10;;;;;;;6.35;3.88;;;;;;;6.85;42.53;100886.31;3538607;40;20405;-73
2021/05/07 08:27:37;;;;;;;5.60;3.80;;;;;;;6.89;42.80;100886.97;3532352;40;20431;-72
2021/05/07 08:30:07;;;;;;;5.28;3.50;;;;;;;6.94;43.30;100896.53;3529166;40;20429;-73
2021/05/07 08:32:35;;;;;;;4.70;3.17;;;;;;;7.01;43.33;100903.28;3530182;40;20055;-73
2021/05/07 08:35:03;;;;;;;5.00;3.45;;;;;;;7.11;43.67;100912.56;3531382;40;20055;-73
2021/05/07 08:37:30;;;;;;;6.80;3.55;;;;;;;7.25;43.68;100918.84;3531429;40;20051;-73
2021/05/07 08:39:59;;;;;;;4.90;3.25;;;;;;;7.36;43.73;100927.13;3530493;40;20196;-74
2021/05/07 08:42:26;;;;;;;5.72;3.63;;;;;;;7.44;43.64;100922.00;3531045;40;20051;-74
2021/05/07 08:44:53;;;;;;;5.00;3.35;;;;;;;7.53;43.36;100928.63;3536062;40;20051;-74
2021/05/07 08:47:22;;;;;;;5.07;3.35;;;;;;;7.63;43.64;100940.59;3531520;40;20059;-73
2021/05/07 08:49:54;;;;;;;6.90;4.18;;;;;;;7.73;43.79;100941.69;3532254;40;20051;-73
2021/05/07 08:52:21;;;;;;;6.20;3.97;;;;;;;7.83;44.17;100959.94;3534037;40;20361;-73
2021/05/07 08:54:50;;;;;;;6.47;3.90;;;;;;;7.94;44.16;100959.16;3531512;40;20051;-74
2021/05/07 08:57:18;;;;;;;6.43;4.10;;;;;;;8.08;44.17;100963.56;3533743;40;20055;-74
2021/05/07 08:59:46;;;;;;;6.03;3.53;;;;;;;8.21;44.15;100970.75;3528469;40;20459;-74
2021/05/07 09:02:23;;;;;;;7.45;4.32;;;;;;;8.39;44.06;100979.41;3534386;40;20066;-77
2021/05/07 09:04:52;;;;;;;5.90;3.80;;;;;;;8.50;43.87;100973.16;3537749;40;20063;-77
2021/05/07 09:07:19;;;;;;;6.50;4.78;;;;;;;8.67;43.86;100988.22;3530168;40;20051;-77
2021/05/07 09:09:54;;;;;;;6.47;3.88;;;;;;;8.82;43.69;100996.09;3528670;40;20044;-76
2021/05/07 09:12:29;;;;;;;6.10;4.25;;;;;;;8.97;43.50;101003.09;3530627;40;20069;-77
2021/05/07 09:14:58;;;;;;;6.78;4.47;;;;;;;9.07;43.34;101000.53;3541904;40;20344;-76
2021/05/07 09:17:30;;;;;;;7.60;4.88;;;;;;;9.22;43.14;101003.91;3524406;40;20039;-75
2021/05/07 09:20:11;;;;;;;6.38;4.43;;;;;;;9.36;42.79;101014.63;3530512;40;20051;-73
2021/05/07 09:22:40;;;;;;;9.02;4.75;;;;;;;9.45;42.65;101018.50;3533197;40;20133;-73
2021/05/07 09:25:11;;;;;;;7.55;5.00;;;;;;;9.57;42.08;101023.84;3529713;40;20316;-74
2021/05/07 09:27:40;;;;;;;8.10;5.35;;;;;;;9.66;42.11;101028.56;3528320;40;20062;-74
2021/05/07 09:30:22;;;;;;;10.35;5.47;;;;;;;9.76;41.90;101040.56;3530920;40;20058;-74
2021/05/07 09:32:51;;;;;;;7.68;4.30;;;;;;;9.81;41.71;101044.75;3533194;40;20122;-73
2021/05/07 09:35:20;;;;;;;6.55;3.45;;;;;;;9.89;41.39;101048.63;3528883;40;20106;-75
2021/05/07 09:37:47;;;;;;;5.97;3.30;;;;;;;9.93;40.94;101050.13;3530109;40;20289;-75
2021/05/07 09:40:18;;;;;;;5.47;3.30;;;;;;;10.01;41.08;101057.69;3531117;40;20142;-76
2021/05/07 09:42:48;;;;;;;6.30;3.33;;;;;;;10.06;40.75;101055.44;3528727;40;20058;-74
2021/05/07 09:45:21;;;;;;;4.55;3.28;;;;;;;10.11;40.39;101058.69;3532464;40;20055;-74
2021/05/07 09:47:49;;;;;;;5.53;2.80;;;;;;;10.12;40.66;101058.56;3531039;40;20338;-74
2021/05/07 09:50:19;;;;;;;4.15;2.22;;;;;;;10.23;40.54;101065.88;3531387;40;20059;-74
2021/05/07 09:52:50;;;;;;;3.40;1.73;;;;;;;10.31;40.56;101076.19;3539995;40;20039;-73
2021/05/07 09:55:22;;;;;;;2.60;1.63;;;;;;;10.38;40.31;101088.38;3528914;40;20062;-75
2021/05/07 09:57:50;;;;;;;2.40;1.73;;;;;;;10.45;40.05;101089.63;3535123;40;20065;-74
2021/05/07 10:00:19;;;;;;;3.00;1.60;;;;;;;10.51;39.89;101097.31;3528412;40;20091;-74
2021/05/07 10:02:49;;;;;;;4.30;1.90;;;;;;;10.58;39.43;101106.75;3520447;40;20294;-75
2021/05/07 10:05:17;;;;;;;3.67;1.73;;;;;;;10.63;39.21;101106.38;3528575;40;20058;-77
2021/05/07 10:07:45;;;;;;;2.47;1.50;;;;;;;10.67;39.23;101107.88;3530572;40;20095;-77
2021/05/07 10:10:13;;;;;;;2.38;1.50;;;;;;;10.73;39.13;101115.56;3528182;40;20149;-78
2021/05/07 10:12:45;;;;;;;2.30;1.40;;;;;;;10.80;38.74;101119.50;3529638;40;20031;-76
2021/05/07 10:15:13;;;;;;;2.42;1.52;;;;;;;10.89;38.82;101132.47;3529108;40;20066;-77
2021/05/07 10:17:50;;;;;;;2.20;1.23;;;;;;;10.96;38.05;101128.22;3526633;40;20059;-73
2021/05/07 10:20:27;;;;;;;3.30;1.27;;;;;;;11.00;37.98;101129.72;3533198;40;20066;-73
2021/05/07 10:22:59;;;;;;;2.08;1.40;;;;;;;11.05;38.19;101130.19;3526883;40;20061;-73
2021/05/07 10:25:28;;;;;;;2.08;1.40;;;;;;;11.11;37.77;101134.28;3528891;40;20091;-74
2021/05/07 10:27:56;;;;;;;3.70;1.55;;;;;;;11.16;37.88;101124.69;3535405;40;20077;-73
2021/05/07 10:30:30;;;;;;;2.28;1.40;;;;;;;11.24;36.80;101145.94;3527196;40;20438;-76
2021/05/07 10:33:02;;;;;;;2.63;1.65;;;;;;;11.28;37.35;101140.06;3531595;40;20074;-75
2021/05/07 10:35:32;;;;;;;2.50;1.42;;;;;;;11.32;37.15;101148.91;3525738;40;20433;-76
2021/05/07 10:38:14;;;;;;;2.70;1.25;;;;;;;11.38;36.37;101142.88;3530954;40;20046;-73
2021/05/07 10:40:43;;;;;;;2.63;1.55;;;;;;;11.40;36.53;101160.06;3528713;40;20055;-74
2021/05/07 10:43:12;;;;;;;1.85;1.20;;;;;;;11.43;36.59;101161.69;3530332;40;20053;-75
2021/05/07 10:45:45;;;;;;;3.17;1.40;;;;;;;11.45;35.96;101160.53;3527481;40;20134;-72
2021/05/07 10:48:21;;;;;;;2.40;1.35;;;;;;;11.52;35.51;101163.66;3527408;40;20043;-73
2021/05/07 10:50:51;;;;;;;3.28;1.30;;;;;;;11.54;36.24;101159.75;3531584;40;20336;-73
2021/05/07 10:53:30;;;;;;;2.60;1.30;;;;;;;11.64;35.75;101165.31;3528729;40;20043;-73
2021/05/07 10:55:58;;;;;;;2.63;1.40;;;;;;;11.65;36.17;101169.78;3523939;40;20054;-74
2021/05/07 10:58:33;;;;;;;3.50;1.45;;;;;;;11.77;35.64;101170.63;3530637;40;20047;-75
2021/05/07 11:01:14;;;;;;;2.42;1.27;;;;;;;11.81;36.05;101169.34;3531124;40;20133;-75
2021/05/07 11:03:41;;;;;;;2.55;1.38;;;;;;;11.85;35.72;101179.06;3527346;40;20051;-75
2021/05/07 11:06:09;;;;;;;2.20;1.40;;;;;;;11.93;35.58;101182.03;3534630;40;20062;-75
2021/05/07 11:08:36;;;;;;;2.15;1.38;;;;;;;11.99;35.34;101185.09;3530353;40;20061;-73
2021/05/07 11:11:05;;;;;;;2.28;1.40;;;;;;;12.06;35.23;101179.94;3527226;40;20050;-73
2021/05/07 11:13:32;;;;;;;2.13;1.23;;;;;;;12.12;35.06;101190.38;3534241;40;20054;-73
2021/05/07 11:16:01;;;;;;;1.88;1.20;;;;;;;12.21;34.31;101191.44;3531606;40;20417;-73
2021/05/07 11:18:32;;;;;;;2.00;1.33;;;;;;;12.25;34.41;101188.31;3528771;40;20400;-72
2021/05/07 11:21:11;;;;;;;3.42;1.40;;;;;;;12.29;33.55;101192.50;3530152;40;20043;-72
2021/05/07 11:23:57;;;;;;;2.70;1.70;;;;;;;12.29;34.14;101200.72;3531200;40;20083;-72
2021/05/07 11:26:35;;;;;;;2.08;1.40;;;;;;;12.39;33.03;101203.53;3530089;40;20129;-73
2021/05/07 11:29:03;;;;;;;3.50;1.40;;;;;;;12.39;33.96;101198.91;3529362;40;20069;-74
2021/05/07 11:31:32;;;;;;;2.20;1.60;;;;;;;12.45;33.53;101205.72;3527527;40;20063;-73
2021/05/07 11:33:59;;;;;;;2.58;1.40;;;;;;;12.45;33.56;101202.97;3525868;40;20359;-73
2021/05/07 11:36:28;;;;;;;2.22;1.40;;;;;;;12.47;33.40;101202.84;3522231;40;20419;-74
2021/05/07 11:38:55;;;;;;;2.05;1.42;;;;;;;12.54;32.95;101212.25;3532915;40;20107;-73
2021/05/07 11:41:24;;;;;;;2.67;1.60;;;;;;;12.56;33.00;101210.25;3526165;40;20153;-72
2021/05/07 11:43:53;;;;;;;2.17;1.58;;;;;;;12.58;33.16;101200.03;3534578;40;20368;-73
2021/05/07 11:46:20;;;;;;;2.78;1.45;;;;;;;12.61;33.21;101206.09;3530772;40;20066;-73